Time;durP1;ratioP1;P1;durP2;ratioP2;P2;SDS_P1;SDS_P2;PMS_P1;PMS_P2;Temp;Humidity;BMP_temperature;BMP_pressure;BME280_temperature;BME280_humidity;BME280_pressure;Samples;Min_cycle;Max_cycle;Signal;HPM_P1;HPM_P2
2023/02/25 00:01:33;;;;;;;18.00;16.30;;;3.10;99.90;;;;;;5053601;28;20558;-70
2023/02/25 00:04:00;;;;;;;33.10;16.57;;;3.20;99.90;;;;;;5059741;28;20459;-71
2023/02/25 00:06:27;;;;;;;21.07;17.27;;;3.20;99.90;;;;;;5058296;28;20474;-69
2023/02/25 00:08:54;;;;;;;18.40;16.80;;;3.20;99.90;;;;;;5059755;28;20471;-73
2023/02/25 00:11:24;;;;;;;17.37;15.80;;;3.30;99.90;;;;;;5058544;28;20517;-71
2023/02/25 00:13:50;;;;;;;17.63;15.80;;;3.20;99.90;;;;;;5053944;28;21010;-71
2023/02/25 00:16:20;;;;;;;19.27;17.27;;;3.10;99.90;;;;;;5055113;28;20495;-72
2023/02/25 00:18:47;;;;;;;18.13;16.23;;;3.10;99.90;;;;;;5053506;28;20524;-71
2023/02/25 00:21:16;;;;;;;18.83;16.90;;;3.00;99.90;;;;;;5055920;28;20525;-71
2023/02/25 00:23:45;;;;;;;17.13;15.77;;;3.00;99.90;;;;;;5055698;28;20462;-70
2023/02/25 00:26:12;;;;;;;18.70;17.20;;;2.90;99.90;;;;;;5059947;28;20468;-69
2023/02/25 00:28:54;;;;;;;19.50;17.10;;;2.90;99.90;;;;;;5063700;28;20454;-72
2023/02/25 00:31:24;;;;;;;18.60;16.73;;;2.70;99.90;;;;;;5052300;28;20871;-72
2023/02/25 00:33:52;;;;;;;19.30;16.63;;;2.70;99.90;;;;;;5055457;28;20731;-73
2023/02/25 00:36:21;;;;;;;18.13;16.40;;;2.60;99.90;;;;;;5057020;28;20878;-69
2023/02/25 00:38:49;;;;;;;18.27;16.50;;;2.60;99.90;;;;;;5061047;28;20472;-70
2023/02/25 00:41:18;;;;;;;23.10;17.63;;;2.50;99.90;;;;;;5049083;28;20488;-71
2023/02/25 00:43:49;;;;;;;17.83;15.57;;;2.50;99.90;;;;;;5039804;28;20468;-70
2023/02/25 00:46:16;;;;;;;22.67;17.10;;;2.50;99.90;;;;;;5036037;28;20465;-70
2023/02/25 00:48:44;;;;;;;23.13;17.60;;;2.40;99.90;;;;;;5038556;28;21034;-70
2023/02/25 00:51:14;;;;;;;19.97;17.80;;;2.40;99.90;;;;;;5032378;28;20947;-69
2023/02/25 00:53:41;;;;;;;20.57;16.33;;;2.40;99.90;;;;;;5036810;28;20597;-72
2023/02/25 00:56:10;;;;;;;17.63;16.13;;;2.40;99.90;;;;;;5032972;28;20496;-72
2023/02/25 00:58:37;;;;;;;18.17;16.00;;;2.40;99.90;;;;;;5034888;28;20558;-70
2023/02/25 01:01:06;;;;;;;24.00;17.80;;;2.40;99.90;;;;;;5028362;28;20469;-71
2023/02/25 01:03:34;;;;;;;22.57;16.27;;;2.40;99.90;;;;;;5031226;28;20464;-69
2023/02/25 01:06:02;;;;;;;24.20;15.90;;;2.40;99.90;;;;;;5040242;28;21010;-69
2023/02/25 01:08:29;;;;;;;16.10;15.10;;;2.40;99.90;;;;;;5041697;28;20468;-70
2023/02/25 01:10:55;;;;;;;22.70;15.67;;;2.40;99.90;;;;;;5034790;28;20484;-72
2023/02/25 01:13:22;;;;;;;19.80;16.87;;;2.40;99.90;;;;;;5035251;28;20964;-70
2023/02/25 01:15:49;;;;;;;16.90;15.47;;;2.30;99.90;;;;;;5040736;28;20525;-69
2023/02/25 01:18:19;;;;;;;18.97;17.00;;;2.30;99.90;;;;;;5039693;28;20461;-72
2023/02/25 01:20:46;;;;;;;19.33;17.40;;;2.20;99.90;;;;;;5036521;28;20468;-71
2023/02/25 01:23:15;;;;;;;19.80;17.80;;;2.10;99.90;;;;;;5034414;28;20500;-71
2023/02/25 01:25:42;;;;;;;19.43;17.50;;;2.10;99.90;;;;;;5035168;28;20502;-70
2023/02/25 01:28:09;;;;;;;20.77;17.60;;;2.10;99.90;;;;;;5041068;28;20471;-69
2023/02/25 01:30:37;;;;;;;19.87;17.80;;;2.10;99.90;;;;;;5035859;28;20471;-71
2023/02/25 01:33:04;;;;;;;21.30;19.07;;;2.00;99.90;;;;;;5033256;28;20614;-71
2023/02/25 01:35:31;;;;;;;19.40;17.57;;;1.90;99.90;;;;;;5031694;28;20492;-71
2023/02/25 01:37:58;;;;;;;28.93;20.93;;;1.90;99.90;;;;;;5035091;28;20680;-71
2023/02/25 01:40:26;;;;;;;19.90;18.10;;;1.80;99.90;;;;;;5027166;28;20494;-69
2023/02/25 01:42:53;;;;;;;20.33;18.20;;;1.70;99.90;;;;;;5054210;28;20826;-71
2023/02/25 01:45:30;;;;;;;21.33;19.10;;;1.80;99.90;;;;;;5058803;28;20460;-71
2023/02/25 01:48:02;;;;;;;20.13;18.33;;;1.80;99.90;;;;;;5049332;28;20734;-70
2023/02/25 01:50:35;;;;;;;19.93;17.37;;;2.00;99.90;;;;;;5051637;28;20475;-70
2023/02/25 01:53:03;;;;;;;20.47;17.00;;;2.10;99.90;;;;;;5056875;28;20467;-72
2023/02/25 01:55:32;;;;;;;18.10;16.60;;;2.20;99.90;;;;;;5053460;28;20841;-71
2023/02/25 01:58:00;;;;;;;20.33;18.40;;;2.30;99.90;;;;;;5051530;28;21168;-72
2023/02/25 02:00:31;;;;;;;20.00;17.83;;;2.50;99.90;;;;;;5053023;28;20467;-68
2023/02/25 02:02:59;;;;;;;18.30;16.37;;;2.60;99.90;;;;;;5056296;28;20474;-72
2023/02/25 02:05:35;;;;;;;17.90;16.30;;;2.60;99.90;;;;;;5055090;28;20839;-71
2023/02/25 02:08:04;;;;;;;22.30;15.20;;;2.70;99.90;;;;;;5057109;28;20592;-72
2023/02/25 02:10:32;;;;;;;17.17;15.33;;;2.60;99.90;;;;;;5056888;28;20496;-72
2023/02/25 02:12:59;;;;;;;16.90;13.90;;;2.70;99.90;;;;;;5047826;28;20455;-71
2023/02/25 02:15:26;;;;;;;15.23;13.73;;;2.70;99.90;;;;;;5060093;28;20490;-70
2023/02/25 02:17:58;;;;;;;21.13;12.87;;;2.80;99.90;;;;;;5062970;28;20469;-72
2023/02/25 02:20:29;;;;;;;35.63;14.30;;;2.80;99.90;;;;;;5056975;28;20981;-72
2023/02/25 02:23:15;;;;;;;13.50;12.20;;;2.80;99.90;;;;;;5057498;28;20455;-71
2023/02/25 02:26:17;;;;;;;12.70;11.60;;;2.80;99.90;;;;;;5056216;28;20536;-71
2023/02/25 02:29:20;;;;;;;12.17;10.30;;;2.80;99.90;;;;;;5052194;28;20724;-70
2023/02/25 02:32:12;;;;;;;25.00;11.50;;;2.80;99.90;;;;;;5048745;28;20655;-73
2023/02/25 02:34:46;;;;;;;17.53;10.90;;;2.90;99.90;;;;;;5056871;28;20813;-71
2023/02/25 02:37:27;;;;;;;14.27;10.50;;;2.90;99.90;;;;;;5054673;28;20497;-71
2023/02/25 02:40:07;;;;;;;16.90;9.60;;;3.00;99.90;;;;;;5059625;28;20462;-71
2023/02/25 02:42:41;;;;;;;9.10;8.50;;;2.90;99.90;;;;;;5056713;28;20498;-70
2023/02/25 02:45:27;;;;;;;17.17;8.60;;;3.00;99.90;;;;;;5058092;28;20471;-72
2023/02/25 02:48:00;;;;;;;13.57;7.97;;;3.00;99.90;;;;;;5055201;28;20463;-71
2023/02/25 02:50:32;;;;;;;9.03;8.33;;;3.00;99.90;;;;;;5054233;28;20464;-73
2023/02/25 02:53:06;;;;;;;14.40;7.90;;;3.00;99.90;;;;;;5057499;28;20483;-73
2023/02/25 02:55:36;;;;;;;16.47;8.00;;;2.90;99.90;;;;;;5058770;28;20523;-71
2023/02/25 02:58:09;;;;;;;13.63;8.27;;;3.00;99.90;;;;;;5058981;28;20466;-70
2023/02/25 03:00:40;;;;;;;23.43;9.73;;;3.00;99.90;;;;;;5054964;28;20473;-72
2023/02/25 03:03:15;;;;;;;25.57;9.40;;;3.00;99.90;;;;;;5057478;28;20474;-71
2023/02/25 03:05:46;;;;;;;9.87;7.40;;;3.00;99.90;;;;;;5058988;28;20951;-71
2023/02/25 03:08:18;;;;;;;10.30;7.40;;;3.00;99.90;;;;;;5058376;28;20460;-71
2023/02/25 03:10:45;;;;;;;19.50;7.00;;;3.00;99.90;;;;;;5065062;28;20460;-70
2023/02/25 03:13:12;;;;;;;12.73;7.00;;;3.00;99.90;;;;;;5060755;28;20469;-73
2023/02/25 03:15:41;;;;;;;21.00;7.77;;;3.00;99.90;;;;;;5059391;28;20474;-74
2023/02/25 03:18:17;;;;;;;13.00;7.23;;;3.00;99.90;;;;;;5058111;28;20513;-71
2023/02/25 03:20:49;;;;;;;17.90;7.97;;;3.00;99.90;;;;;;5056677;28;20470;-71
2023/02/25 03:23:20;;;;;;;10.60;7.53;;;3.00;99.90;;;;;;5058898;28;22073;-73
2023/02/25 03:25:51;;;;;;;19.60;7.63;;;3.10;99.90;;;;;;5054922;28;20462;-70
2023/02/25 03:28:29;;;;;;;10.17;7.80;;;3.00;99.90;;;;;;5064740;28;20542;-73
2023/02/25 03:31:05;;;;;;;10.10;6.73;;;3.00;99.90;;;;;;5057329;28;20463;-70
2023/02/25 03:33:39;;;;;;;13.80;7.93;;;3.00;99.90;;;;;;5054071;28;20550;-73
2023/02/25 03:36:11;;;;;;;9.30;7.93;;;2.90;99.90;;;;;;5056960;28;21066;-70
2023/02/25 03:38:43;;;;;;;22.73;8.30;;;3.10;99.90;;;;;;5059563;28;20858;-68
2023/02/25 03:41:13;;;;;;;10.93;7.73;;;3.00;99.90;;;;;;5062454;28;20482;-70
2023/02/25 03:43:43;;;;;;;8.03;7.23;;;3.00;99.90;;;;;;5057046;28;21012;-69
2023/02/25 03:46:12;;;;;;;12.70;8.00;;;3.10;99.90;;;;;;5055935;28;20938;-71
2023/02/25 03:48:41;;;;;;;10.23;7.83;;;3.10;99.90;;;;;;5057591;28;20804;-69
2023/02/25 03:51:09;;;;;;;17.10;7.83;;;3.10;99.90;;;;;;5051941;28;20466;-71
2023/02/25 03:53:37;;;;;;;11.47;7.37;;;3.10;99.90;;;;;;5059907;28;20467;-72
2023/02/25 03:56:06;;;;;;;12.90;7.50;;;3.10;99.90;;;;;;5064818;28;20555;-72
2023/02/25 03:58:34;;;;;;;14.40;7.73;;;3.10;99.90;;;;;;5061845;28;20455;-73
2023/02/25 04:01:05;;;;;;;13.37;7.63;;;3.10;99.90;;;;;;5053447;28;20981;-71
2023/02/25 04:03:33;;;;;;;20.50;7.93;;;3.20;99.90;;;;;;5048917;28;20475;-72
2023/02/25 04:06:02;;;;;;;7.80;6.83;;;3.20;99.90;;;;;;5059396;28;20513;-72
2023/02/25 04:08:29;;;;;;;15.60;6.87;;;3.20;99.90;;;;;;5053925;28;20555;-72
2023/02/25 04:10:55;;;;;;;18.03;6.83;;;3.20;99.90;;;;;;5052768;28;21282;-70
2023/02/25 04:13:23;;;;;;;13.40;7.07;;;3.10;99.90;;;;;;5056730;28;20706;-73
2023/02/25 04:15:50;;;;;;;12.07;6.80;;;3.10;99.90;;;;;;5052993;28;20486;-71
2023/02/25 04:18:17;;;;;;;9.53;8.03;;;3.20;99.90;;;;;;5058838;28;20459;-71
2023/02/25 04:20:44;;;;;;;18.57;7.50;;;3.20;99.90;;;;;;5057041;28;20474;-69
2023/02/25 04:23:14;;;;;;;8.23;7.40;;;3.20;99.90;;;;;;5054479;28;20464;-69
2023/02/25 04:25:41;;;;;;;13.63;7.40;;;3.20;99.90;;;;;;5060800;28;21051;-71
2023/02/25 04:28:08;;;;;;;20.63;7.40;;;3.30;99.90;;;;;;5061483;28;20462;-72
2023/02/25 04:30:35;;;;;;;7.60;6.80;;;3.20;99.90;;;;;;5049757;28;20479;-71
2023/02/25 04:33:02;;;;;;;15.40;7.27;;;3.20;99.90;;;;;;5050319;28;20467;-72
2023/02/25 04:35:29;;;;;;;13.77;8.70;;;3.30;99.90;;;;;;5059139;28;20460;-73
2023/02/25 04:37:56;;;;;;;15.30;8.40;;;3.30;99.90;;;;;;5064602;28;20463;-71
2023/02/25 04:40:25;;;;;;;27.90;7.10;;;3.30;99.90;;;;;;5056151;28;20463;-71
2023/02/25 04:42:52;;;;;;;8.57;7.20;;;3.20;99.90;;;;;;5053710;28;20567;-71
2023/02/25 04:45:24;;;;;;;29.93;8.20;;;3.30;99.90;;;;;;5060899;28;20454;-70
2023/02/25 04:47:51;;;;;;;12.53;7.60;;;3.30;99.90;;;;;;5055248;28;20555;-72
2023/02/25 04:50:18;;;;;;;24.53;7.50;;;3.30;99.90;;;;;;5055075;28;20554;-74
2023/02/25 04:52:45;;;;;;;22.33;9.90;;;3.20;99.90;;;;;;5055876;28;20467;-72
2023/02/25 04:55:13;;;;;;;6.70;6.10;;;3.30;99.90;;;;;;5054538;28;20468;-71
2023/02/25 04:57:42;;;;;;;11.67;7.00;;;3.20;99.90;;;;;;5046306;28;20492;-71
2023/02/25 05:00:15;;;;;;;12.30;7.60;;;3.20;99.90;;;;;;5055108;28;20576;-72
2023/02/25 05:02:42;;;;;;;13.57;7.60;;;3.20;99.90;;;;;;5055491;28;20459;-71
2023/02/25 05:05:10;;;;;;;18.70;8.07;;;3.20;99.90;;;;;;5055386;28;20460;-71
2023/02/25 05:07:37;;;;;;;17.70;7.73;;;3.30;99.90;;;;;;5055679;28;20561;-72
2023/02/25 05:10:05;;;;;;;18.30;7.83;;;3.30;99.90;;;;;;5061709;28;20509;-72
2023/02/25 05:12:32;;;;;;;17.03;7.67;;;3.30;99.90;;;;;;5052704;28;20475;-71
2023/02/25 05:15:02;;;;;;;14.83;9.43;;;3.30;99.90;;;;;;5049364;28;20463;-70
2023/02/25 05:17:30;;;;;;;16.00;7.60;;;3.30;99.90;;;;;;5054272;28;20561;-69
2023/02/25 05:19:57;;;;;;;12.70;7.60;;;3.30;99.90;;;;;;5059395;28;20558;-73
2023/02/25 05:22:24;;;;;;;14.50;7.97;;;3.30;99.90;;;;;;5060547;28;20947;-73
2023/02/25 05:24:51;;;;;;;18.20;8.30;;;3.30;99.90;;;;;;5055508;28;20467;-72
2023/02/25 05:27:19;;;;;;;11.87;7.40;;;3.40;99.90;;;;;;5048866;28;20456;-71
2023/02/25 05:29:46;;;;;;;8.73;8.10;;;3.40;99.90;;;;;;5059321;28;20468;-70
2023/02/25 05:32:14;;;;;;;11.13;8.03;;;3.40;99.90;;;;;;5068280;28;20554;-70
2023/02/25 05:34:41;;;;;;;13.57;8.20;;;3.40;99.90;;;;;;5056901;28;20862;-70
2023/02/25 05:37:09;;;;;;;10.30;7.73;;;3.40;99.90;;;;;;5062748;28;20501;-72
2023/02/25 05:39:36;;;;;;;8.67;7.80;;;3.30;99.90;;;;;;5048915;28;20472;-70
2023/02/25 05:42:03;;;;;;;11.13;7.90;;;3.30;99.90;;;;;;5054532;28;20495;-70
2023/02/25 05:44:30;;;;;;;25.97;9.00;;;3.30;99.90;;;;;;5059008;28;20481;-70
2023/02/25 05:46:57;;;;;;;19.10;8.17;;;3.30;99.90;;;;;;5053645;28;20460;-73
2023/02/25 05:49:25;;;;;;;24.17;8.73;;;3.40;99.90;;;;;;5049693;28;20490;-71
2023/02/25 05:51:52;;;;;;;15.10;9.03;;;3.30;99.90;;;;;;5052350;28;20464;-69
2023/02/25 05:54:19;;;;;;;9.00;7.20;;;3.30;99.90;;;;;;5055181;28;20835;-72
2023/02/25 05:56:45;;;;;;;9.43;7.97;;;3.30;99.90;;;;;;5058111;28;20913;-71
2023/02/25 05:59:15;;;;;;;8.07;7.40;;;3.30;99.90;;;;;;5053791;28;20470;-68
2023/02/25 06:01:42;;;;;;;16.27;8.00;;;3.30;99.90;;;;;;5055569;28;20494;-70
2023/02/25 06:04:09;;;;;;;22.87;8.90;;;3.40;99.90;;;;;;5058860;28;20463;-71
2023/02/25 06:06:38;;;;;;;9.97;7.97;;;3.40;99.90;;;;;;5057509;28;20834;-69
2023/02/25 06:09:08;;;;;;;15.70;9.37;;;3.30;99.90;;;;;;5055223;28;20451;-71
2023/02/25 06:11:35;;;;;;;14.23;7.63;;;3.40;99.90;;;;;;5055901;28;20484;-73
2023/02/25 06:14:02;;;;;;;15.53;7.50;;;3.30;99.90;;;;;;5053907;28;20949;-69
2023/02/25 06:16:30;;;;;;;14.80;8.33;;;3.30;99.90;;;;;;5060085;28;20467;-70
2023/02/25 06:18:59;;;;;;;9.50;7.50;;;3.30;99.90;;;;;;5051795;28;20502;-72
2023/02/25 06:21:26;;;;;;;14.50;8.00;;;3.30;99.90;;;;;;5052642;28;20826;-73
2023/02/25 06:23:55;;;;;;;18.67;8.10;;;3.40;99.90;;;;;;5052828;28;20475;-73
2023/02/25 06:26:21;;;;;;;20.40;7.90;;;3.40;99.90;;;;;;5054419;28;20470;-69
2023/02/25 06:28:48;;;;;;;12.63;8.33;;;3.50;99.90;;;;;;5055098;28;20907;-72
2023/02/25 06:31:17;;;;;;;14.23;8.33;;;3.50;99.90;;;;;;5058707;28;20467;-70
2023/02/25 06:33:45;;;;;;;16.23;9.00;;;3.40;99.90;;;;;;5055291;28;20469;-71
2023/02/25 06:36:14;;;;;;;17.50;7.90;;;3.40;99.90;;;;;;5058467;28;20529;-69
2023/02/25 06:38:42;;;;;;;14.70;7.97;;;3.40;99.90;;;;;;5061438;28;20456;-70
2023/02/25 06:41:15;;;;;;;26.03;8.00;;;3.40;99.90;;;;;;5065415;28;20563;-71
2023/02/25 06:43:42;;;;;;;19.90;8.83;;;3.40;99.90;;;;;;5055277;28;20492;-72
2023/02/25 06:46:12;;;;;;;19.40;8.53;;;3.40;99.90;;;;;;5059842;28;20459;-71
2023/02/25 06:48:40;;;;;;;24.10;8.70;;;3.40;99.90;;;;;;5054276;28;20470;-70
2023/02/25 06:51:08;;;;;;;22.60;8.93;;;3.50;99.90;;;;;;5056308;28;20470;-72
2023/02/25 06:53:35;;;;;;;15.33;9.50;;;3.60;99.90;;;;;;5057532;28;20464;-73
2023/02/25 06:56:02;;;;;;;23.90;9.30;;;3.50;99.90;;;;;;5058958;28;20891;-69
2023/02/25 06:58:30;;;;;;;9.30;8.40;;;3.50;99.90;;;;;;5058129;28;20487;-70
2023/02/25 07:00:58;;;;;;;21.87;9.30;;;3.50;99.90;;;;;;5055040;28;20843;-71
2023/02/25 07:03:25;;;;;;;38.57;11.37;;;3.50;99.90;;;;;;5052626;28;20873;-72
2023/02/25 07:05:52;;;;;;;13.07;8.70;;;3.50;99.90;;;;;;5060732;28;20765;-71
2023/02/25 07:08:19;;;;;;;9.30;8.47;;;3.60;99.90;;;;;;5062201;28;20458;-72
2023/02/25 07:10:46;;;;;;;13.03;9.07;;;3.70;99.90;;;;;;5054948;28;20973;-71
2023/02/25 07:13:13;;;;;;;23.03;11.33;;;3.70;99.90;;;;;;5054396;28;20935;-73
2023/02/25 07:15:42;;;;;;;10.50;9.43;;;3.70;99.90;;;;;;5061807;28;20984;-73
2023/02/25 07:18:09;;;;;;;15.33;9.73;;;3.70;99.90;;;;;;5052510;28;20850;-72
2023/02/25 07:20:38;;;;;;;16.90;9.50;;;3.80;99.90;;;;;;5062038;28;20462;-70
2023/02/25 07:23:05;;;;;;;13.13;8.80;;;3.80;99.90;;;;;;5063771;28;20463;-70
2023/02/25 07:25:32;;;;;;;13.83;9.53;;;3.90;99.90;;;;;;5057909;28;20459;-73
2023/02/25 07:28:00;;;;;;;24.83;10.07;;;3.90;99.90;;;;;;5059696;28;20458;-70
2023/02/25 07:30:27;;;;;;;17.33;10.27;;;4.00;99.90;;;;;;5063038;28;20500;-70
2023/02/25 07:32:55;;;;;;;21.03;10.23;;;4.10;99.90;;;;;;5065069;28;20464;-70
2023/02/25 07:35:22;;;;;;;17.03;10.50;;;4.10;99.90;;;;;;5057759;28;20497;-71
2023/02/25 07:37:49;;;;;;;14.67;10.27;;;4.10;99.90;;;;;;5057073;28;20509;-72
2023/02/25 07:40:16;;;;;;;13.03;8.80;;;4.00;99.90;;;;;;5058103;28;20463;-72
2023/02/25 07:42:44;;;;;;;23.37;9.50;;;4.00;99.90;;;;;;5055863;28;20894;-72
2023/02/25 07:45:11;;;;;;;11.53;9.20;;;4.00;99.90;;;;;;5058192;28;20471;-69
2023/02/25 07:47:39;;;;;;;19.50;9.30;;;4.00;99.90;;;;;;5053570;28;20459;-71
2023/02/25 07:50:10;;;;;;;16.00;8.83;;;4.00;99.90;;;;;;5058761;28;20490;-70
2023/02/25 07:52:37;;;;;;;13.53;9.43;;;4.00;99.90;;;;;;5054228;28;20553;-74
2023/02/25 07:55:05;;;;;;;13.60;9.83;;;4.00;99.90;;;;;;5054706;28;20524;-73
2023/02/25 07:57:32;;;;;;;24.40;10.73;;;4.00;99.90;;;;;;5048200;28;21050;-74
2023/02/25 07:59:59;;;;;;;15.73;9.97;;;4.10;99.90;;;;;;5056834;28;20464;-72
2023/02/25 08:02:27;;;;;;;13.10;9.67;;;4.10;99.90;;;;;;5054882;28;20459;-73
2023/02/25 08:04:53;;;;;;;10.53;8.80;;;4.20;99.90;;;;;;5055365;28;20455;-71
2023/02/25 08:07:22;;;;;;;19.10;9.37;;;4.20;99.90;;;;;;5058143;28;20968;-71
2023/02/25 08:09:48;;;;;;;13.03;8.53;;;4.30;99.90;;;;;;5047527;28;20460;-74
2023/02/25 08:12:15;;;;;;;20.57;9.70;;;4.50;99.90;;;;;;5054197;28;20865;-72
2023/02/25 08:14:42;;;;;;;13.50;9.87;;;4.60;99.90;;;;;;5058559;28;20490;-71
2023/02/25 08:17:09;;;;;;;10.83;8.60;;;4.70;99.90;;;;;;5056703;28;20484;-71
2023/02/25 08:19:36;;;;;;;21.67;11.07;;;4.60;99.90;;;;;;5057143;28;20478;-71
2023/02/25 08:22:03;;;;;;;12.40;10.90;;;4.70;99.90;;;;;;5049478;28;20473;-72
2023/02/25 08:24:31;;;;;;;22.30;10.70;;;4.70;99.90;;;;;;5056063;28;20456;-70
2023/02/25 08:26:58;;;;;;;14.30;9.73;;;4.70;99.90;;;;;;5051834;28;20472;-72
2023/02/25 08:29:25;;;;;;;14.07;10.20;;;4.70;99.90;;;;;;5052082;28;20463;-70
2023/02/25 08:31:52;;;;;;;16.87;11.27;;;4.80;99.90;;;;;;5061596;28;20463;-71
2023/02/25 08:34:19;;;;;;;10.80;9.77;;;4.80;99.90;;;;;;5056772;28;20860;-69
2023/02/25 08:36:46;;;;;;;18.47;10.57;;;4.80;99.90;;;;;;5058200;28;20463;-69
2023/02/25 08:39:13;;;;;;;11.50;10.47;;;4.90;99.90;;;;;;5061090;28;20459;-70
2023/02/25 08:41:43;;;;;;;15.97;11.27;;;4.80;99.90;;;;;;5055893;28;20773;-69
2023/02/25 08:44:10;;;;;;;11.33;9.47;;;4.80;99.90;;;;;;5050557;28;20470;-71
2023/02/25 08:46:37;;;;;;;13.90;10.40;;;4.80;99.90;;;;;;5056403;28;20463;-71
2023/02/25 08:49:05;;;;;;;20.97;11.27;;;4.80;99.90;;;;;;5056279;28;20491;-74
2023/02/25 08:51:33;;;;;;;19.10;12.20;;;4.90;99.90;;;;;;5056463;28;20459;-71
2023/02/25 08:54:02;;;;;;;15.97;12.07;;;4.90;99.90;;;;;;5054273;28;20950;-71
2023/02/25 08:56:30;;;;;;;15.83;10.93;;;5.00;99.90;;;;;;5045351;28;20543;-73
2023/02/25 08:58:58;;;;;;;12.37;10.53;;;5.00;99.90;;;;;;5050266;28;21023;-73
2023/02/25 09:01:24;;;;;;;18.50;11.57;;;5.10;99.90;;;;;;5058253;28;20471;-73
2023/02/25 09:03:51;;;;;;;13.57;11.13;;;5.20;99.90;;;;;;5058815;28;20555;-74
2023/02/25 09:06:20;;;;;;;13.97;11.33;;;5.30;99.90;;;;;;5060054;28;20474;-74
2023/02/25 09:08:47;;;;;;;19.70;10.47;;;5.40;99.90;;;;;;5055073;28;20498;-71
2023/02/25 09:11:14;;;;;;;12.57;11.77;;;5.40;99.90;;;;;;5046512;28;20492;-72
2023/02/25 09:13:42;;;;;;;21.63;12.77;;;5.50;99.90;;;;;;5050976;28;20512;-73
2023/02/25 09:16:10;;;;;;;19.27;12.97;;;5.30;99.90;;;;;;5057023;28;20499;-73
2023/02/25 09:18:37;;;;;;;14.60;13.20;;;5.50;99.90;;;;;;5050286;28;20924;-73
2023/02/25 09:21:04;;;;;;;13.37;12.43;;;5.50;99.90;;;;;;5057236;28;20458;-74
2023/02/25 09:23:31;;;;;;;13.10;12.20;;;5.40;99.90;;;;;;5054037;28;20979;-74
2023/02/25 09:26:03;;;;;;;14.60;13.30;;;5.60;99.90;;;;;;5049104;28;20840;-73
2023/02/25 09:28:31;;;;;;;13.60;12.40;;;5.60;99.90;;;;;;5046698;28;20962;-75
2023/02/25 09:30:58;;;;;;;25.87;13.50;;;5.60;99.90;;;;;;5047952;28;20478;-75
2023/02/25 09:33:26;;;;;;;14.90;12.57;;;5.70;99.90;;;;;;5055280;28;20464;-72
2023/02/25 09:35:54;;;;;;;18.50;13.20;;;5.90;99.90;;;;;;5056754;28;20459;-72
2023/02/25 09:38:21;;;;;;;25.17;13.37;;;5.90;99.90;;;;;;5054884;28;20494;-74
2023/02/25 09:40:50;;;;;;;14.40;12.97;;;6.00;99.90;;;;;;5052888;28;20463;-69
2023/02/25 09:43:24;;;;;;;14.00;13.00;;;5.90;99.90;;;;;;5056778;28;20460;-68
2023/02/25 09:45:54;;;;;;;14.40;13.33;;;5.80;99.90;;;;;;5060112;28;20479;-70
2023/02/25 09:48:29;;;;;;;15.73;14.23;;;6.00;99.90;;;;;;5056650;28;20807;-71
2023/02/25 09:51:03;;;;;;;19.67;12.97;;;6.10;99.90;;;;;;5048238;28;20901;-70
2023/02/25 09:53:35;;;;;;;15.43;13.90;;;6.00;99.90;;;;;;5048409;28;20467;-74
2023/02/25 09:56:06;;;;;;;15.93;13.87;;;6.00;99.90;;;;;;5053666;28;20459;-70
2023/02/25 09:58:39;;;;;;;14.70;13.57;;;6.10;99.90;;;;;;5053279;28;20491;-72
2023/02/25 10:01:14;;;;;;;21.03;15.20;;;6.10;99.90;;;;;;5054566;28;20466;-70
2023/02/25 10:03:49;;;;;;;15.80;14.63;;;6.00;99.90;;;;;;5052203;28;20488;-70
2023/02/25 10:06:21;;;;;;;15.37;13.93;;;6.00;99.90;;;;;;5056020;28;20462;-72
2023/02/25 10:08:56;;;;;;;16.07;14.67;;;6.00;99.90;;;;;;5051150;28;20473;-71
2023/02/25 10:11:34;;;;;;;14.40;13.50;;;6.20;99.90;;;;;;5052287;28;20564;-72
2023/02/25 10:14:16;;;;;;;15.93;14.67;;;6.50;99.90;;;;;;5057226;28;20490;-73
2023/02/25 10:16:53;;;;;;;15.23;13.97;;;6.70;99.90;;;;;;5053678;28;20898;-72
2023/02/25 10:19:36;;;;;;;16.17;14.60;;;6.30;99.90;;;;;;5052784;28;20482;-74
2023/02/25 10:22:19;;;;;;;13.70;12.30;;;6.00;99.90;;;;;;5050718;28;20493;-71
2023/02/25 10:24:50;;;;;;;12.70;11.90;;;6.00;99.90;;;;;;5046705;28;20934;-73
2023/02/25 10:27:21;;;;;;;15.20;13.50;;;5.90;99.90;;;;;;5052086;28;20450;-72
2023/02/25 10:29:51;;;;;;;15.87;13.70;;;6.00;99.90;;;;;;5044932;28;20459;-72
2023/02/25 10:32:21;;;;;;;14.43;13.30;;;6.10;99.90;;;;;;5051585;28;20460;-72
2023/02/25 10:34:51;;;;;;;14.37;13.37;;;6.30;99.90;;;;;;5048999;28;20480;-72
2023/02/25 10:37:25;;;;;;;14.10;13.07;;;6.30;99.90;;;;;;5048247;28;20522;-74
2023/02/25 10:39:56;;;;;;;14.43;13.43;;;6.20;99.90;;;;;;5050076;28;20546;-75
2023/02/25 10:42:23;;;;;;;16.60;15.17;;;6.30;99.90;;;;;;5049914;28;20576;-74
2023/02/25 10:44:50;;;;;;;16.07;14.47;;;6.40;99.90;;;;;;5053277;28;21107;-71
2023/02/25 10:47:25;;;;;;;14.47;13.50;;;6.70;99.90;;;;;;5052106;28;20462;-70
2023/02/25 10:50:16;;;;;;;16.20;14.20;;;6.70;99.90;;;;;;5048363;28;20467;-70
2023/02/25 10:52:58;;;;;;;15.53;14.10;;;6.90;99.90;;;;;;5054425;28;20466;-72
2023/02/25 10:55:35;;;;;;;20.40;13.93;;;7.00;99.90;;;;;;5049327;28;20460;-71
2023/02/25 10:58:03;;;;;;;15.33;14.37;;;7.30;99.90;;;;;;5049514;28;20487;-71
2023/02/25 11:00:32;;;;;;;16.53;15.00;;;7.60;99.90;;;;;;5054651;28;21191;-73
2023/02/25 11:03:01;;;;;;;18.53;16.27;;;7.20;99.90;;;;;;5054863;28;21082;-71
2023/02/25 11:05:39;;;;;;;19.40;17.17;;;6.50;99.90;;;;;;5059042;28;20474;-71
2023/02/25 11:08:25;;;;;;;18.60;16.87;;;6.10;99.90;;;;;;5058284;28;20552;-71
2023/02/25 11:11:01;;;;;;;20.50;18.47;;;5.90;99.90;;;;;;5051740;28;20545;-72
2023/02/25 11:13:34;;;;;;;19.87;18.00;;;5.80;99.90;;;;;;5052965;28;20461;-69
2023/02/25 11:16:05;;;;;;;20.40;16.60;;;5.90;99.90;;;;;;5054671;28;20954;-71
2023/02/25 11:18:33;;;;;;;15.07;13.90;;;6.50;99.90;;;;;;5056874;28;20901;-72
2023/02/25 11:21:06;;;;;;;14.43;13.23;;;6.90;99.90;;;;;;5057340;28;20463;-71
2023/02/25 11:23:35;;;;;;;13.37;11.97;;;7.20;99.90;;;;;;5046314;28;21049;-72
2023/02/25 11:26:05;;;;;;;12.90;11.80;;;7.20;99.90;;;;;;5058768;28;20457;-73
2023/02/25 11:28:38;;;;;;;12.67;12.07;;;7.00;99.90;;;;;;5059207;28;20774;-74
2023/02/25 11:31:08;;;;;;;11.93;11.43;;;6.50;99.90;;;;;;5057862;28;20846;-72
2023/02/25 11:33:38;;;;;;;14.07;12.77;;;6.60;99.90;;;;;;5056154;28;20511;-71
2023/02/25 11:36:07;;;;;;;13.63;12.53;;;7.40;99.90;;;;;;5058633;28;20471;-72
2023/02/25 11:38:35;;;;;;;15.63;14.43;;;8.30;99.90;;;;;;5067887;28;20581;-71
2023/02/25 11:41:02;;;;;;;15.43;14.10;;;9.10;99.90;;;;;;5061954;28;20873;-71
2023/02/25 11:43:36;;;;;;;16.07;14.53;;;9.40;99.90;;;;;;5052215;28;20546;-73
2023/02/25 11:46:07;;;;;;;16.00;14.33;;;9.80;99.90;;;;;;5052721;28;20467;-70
2023/02/25 11:48:45;;;;;;;15.20;14.30;;;9.90;99.90;;;;;;5056765;28;20463;-69
2023/02/25 11:51:21;;;;;;;16.20;15.00;;;9.20;99.90;;;;;;5053362;28;20558;-71
2023/02/25 11:54:00;;;;;;;15.47;14.43;;;8.30;99.90;;;;;;5061750;28;20470;-75
2023/02/25 11:56:30;;;;;;;16.33;15.03;;;8.30;99.90;;;;;;5057399;28;20452;-72
2023/02/25 11:59:14;;;;;;;16.10;14.73;;;8.30;99.90;;;;;;5055708;28;20486;-72
2023/02/25 12:01:54;;;;;;;15.87;14.50;;;9.00;99.90;;;;;;5061226;28;20462;-71
2023/02/25 12:04:45;;;;;;;15.50;14.37;;;9.30;99.90;;;;;;5057872;28;20799;-72
2023/02/25 12:07:40;;;;;;;15.00;14.10;;;8.60;99.90;;;;;;5052535;28;20471;-71
2023/02/25 12:10:33;;;;;;;18.13;16.40;;;7.90;99.90;;;;;;5058652;28;20550;-73
2023/02/25 12:13:32;;;;;;;16.47;15.17;;;8.80;99.90;;;;;;5040571;28;20850;-72
2023/02/25 12:16:28;;;;;;;19.20;15.67;;;8.80;99.90;;;;;;5032873;28;20814;-73
2023/02/25 12:19:23;;;;;;;16.13;15.20;;;8.80;99.90;;;;;;5064060;28;20548;-71
2023/02/25 12:22:26;;;;;;;14.87;14.10;;;8.80;99.90;;;;;;5063139;28;20491;-71
2023/02/25 12:25:11;;;;;;;16.30;14.90;;;9.10;99.90;;;;;;5062971;28;20493;-69
2023/02/25 12:28:17;;;;;;;27.03;15.43;;;9.00;99.90;;;;;;5054820;28;20463;-74
2023/02/25 12:31:06;;;;;;;16.40;15.20;;;8.80;99.90;;;;;;5061326;28;20849;-73
2023/02/25 12:34:05;;;;;;;17.20;15.60;;;8.80;99.90;;;;;;5052643;28;20502;-71
2023/02/25 12:36:48;;;;;;;15.93;14.93;;;9.30;99.90;;;;;;5060405;28;20855;-71
2023/02/25 12:39:31;;;;;;;15.63;14.90;;;10.20;99.90;;;;;;5061556;28;20486;-73
2023/02/25 12:42:12;;;;;;;16.83;15.73;;;10.60;99.90;;;;;;5054996;28;20491;-74
2023/02/25 12:44:55;;;;;;;15.97;15.10;;;10.20;99.90;;;;;;5053292;28;20463;-75
2023/02/25 12:47:30;;;;;;;16.70;15.60;;;10.60;99.90;;;;;;5053244;28;20536;-73
2023/02/25 12:50:13;;;;;;;16.43;15.53;;;10.40;99.90;;;;;;5054657;28;21232;-70
2023/02/25 12:52:58;;;;;;;15.70;14.90;;;10.20;99.90;;;;;;5051954;28;20476;-71
2023/02/25 12:55:46;;;;;;;15.80;15.00;;;10.50;99.90;;;;;;5051002;28;20459;-70
2023/02/25 12:58:39;;;;;;;16.60;15.60;;;9.30;99.90;;;;;;5058637;28;20463;-74
2023/02/25 13:01:20;;;;;;;17.60;16.30;;;8.80;99.90;;;;;;5054418;28;20447;-71